sensor_id;sensor_type;location;lat;lon;timestamp;P1;durP1;ratioP1;P2;durP2;ratioP2
9842;SDS011;4960;48.736;9.108;2023-02-15T00:02:01;0.20;;;0.20;;
9842;SDS011;4960;48.736;9.108;2023-02-15T00:04:28;0.30;;;0.30;;
9842;SDS011;4960;48.736;9.108;2023-02-15T00:07:11;0.27;;;0.27;;
9842;SDS011;4960;48.736;9.108;2023-02-15T00:09:38;0.30;;;0.30;;
9842;SDS011;4960;48.736;9.108;2023-02-15T00:12:05;0.30;;;0.30;;
9842;SDS011;4960;48.736;9.108;2023-02-15T00:14:32;0.30;;;0.30;;
9842;SDS011;4960;48.736;9.108;2023-02-15T00:16:59;0.20;;;0.20;;
9842;SDS011;4960;48.736;9.108;2023-02-15T00:19:26;0.30;;;0.30;;
9842;SDS011;4960;48.736;9.108;2023-02-15T00:21:54;0.40;;;0.40;;
9842;SDS011;4960;48.736;9.108;2023-02-15T00:24:22;0.30;;;0.30;;
9842;SDS011;4960;48.736;9.108;2023-02-15T00:26:49;0.30;;;0.30;;
9842;SDS011;4960;48.736;9.108;2023-02-15T00:29:17;0.30;;;0.30;;
9842;SDS011;4960;48.736;9.108;2023-02-15T00:31:45;0.33;;;0.33;;
9842;SDS011;4960;48.736;9.108;2023-02-15T00:34:13;0.20;;;0.20;;
9842;SDS011;4960;48.736;9.108;2023-02-15T00:36:41;0.30;;;0.30;;
9842;SDS011;4960;48.736;9.108;2023-02-15T00:39:08;0.30;;;0.30;;
9842;SDS011;4960;48.736;9.108;2023-02-15T00:41:36;0.27;;;0.27;;
9842;SDS011;4960;48.736;9.108;2023-02-15T00:44:04;0.30;;;0.30;;
9842;SDS011;4960;48.736;9.108;2023-02-15T00:46:31;0.30;;;0.30;;
9842;SDS011;4960;48.736;9.108;2023-02-15T00:48:58;0.30;;;0.30;;
9842;SDS011;4960;48.736;9.108;2023-02-15T00:51:25;0.30;;;0.30;;
9842;SDS011;4960;48.736;9.108;2023-02-15T00:53:53;0.30;;;0.30;;
9842;SDS011;4960;48.736;9.108;2023-02-15T00:56:20;0.40;;;0.40;;
9842;SDS011;4960;48.736;9.108;2023-02-15T00:58:48;0.30;;;0.30;;
9842;SDS011;4960;48.736;9.108;2023-02-15T01:01:17;0.30;;;0.30;;
9842;SDS011;4960;48.736;9.108;2023-02-15T01:03:44;0.37;;;0.37;;
9842;SDS011;4960;48.736;9.108;2023-02-15T01:06:12;0.37;;;0.37;;
9842;SDS011;4960;48.736;9.108;2023-02-15T01:08:39;0.30;;;0.30;;
9842;SDS011;4960;48.736;9.108;2023-02-15T01:11:07;0.50;;;0.50;;
9842;SDS011;4960;48.736;9.108;2023-02-15T01:13:34;0.40;;;0.40;;
9842;SDS011;4960;48.736;9.108;2023-02-15T01:16:03;0.30;;;0.30;;
9842;SDS011;4960;48.736;9.108;2023-02-15T01:18:30;0.30;;;0.30;;
9842;SDS011;4960;48.736;9.108;2023-02-15T01:20:58;0.30;;;0.30;;
9842;SDS011;4960;48.736;9.108;2023-02-15T01:23:25;0.30;;;0.30;;
9842;SDS011;4960;48.736;9.108;2023-02-15T01:25:52;0.40;;;0.40;;
9842;SDS011;4960;48.736;9.108;2023-02-15T01:28:20;0.30;;;0.30;;
9842;SDS011;4960;48.736;9.108;2023-02-15T01:30:47;0.40;;;0.40;;
9842;SDS011;4960;48.736;9.108;2023-02-15T01:33:15;0.30;;;0.30;;
9842;SDS011;4960;48.736;9.108;2023-02-15T01:35:43;0.40;;;0.40;;
9842;SDS011;4960;48.736;9.108;2023-02-15T01:38:11;0.30;;;0.30;;
9842;SDS011;4960;48.736;9.108;2023-02-15T01:40:38;0.30;;;0.30;;
9842;SDS011;4960;48.736;9.108;2023-02-15T01:43:08;0.30;;;0.30;;
9842;SDS011;4960;48.736;9.108;2023-02-15T01:45:35;0.30;;;0.30;;
9842;SDS011;4960;48.736;9.108;2023-02-15T01:48:03;0.30;;;0.30;;
9842;SDS011;4960;48.736;9.108;2023-02-15T01:50:33;0.30;;;0.30;;
9842;SDS011;4960;48.736;9.108;2023-02-15T01:53:02;0.33;;;0.33;;
9842;SDS011;4960;48.736;9.108;2023-02-15T01:55:31;0.30;;;0.30;;
9842;SDS011;4960;48.736;9.108;2023-02-15T01:58:00;0.37;;;0.37;;
9842;SDS011;4960;48.736;9.108;2023-02-15T02:00:27;0.23;;;0.23;;
9842;SDS011;4960;48.736;9.108;2023-02-15T02:02:55;0.30;;;0.30;;
9842;SDS011;4960;48.736;9.108;2023-02-15T02:05:23;0.30;;;0.30;;
9842;SDS011;4960;48.736;9.108;2023-02-15T02:07:52;0.30;;;0.30;;
9842;SDS011;4960;48.736;9.108;2023-02-15T02:10:21;0.40;;;0.40;;
9842;SDS011;4960;48.736;9.108;2023-02-15T02:12:49;0.40;;;0.40;;
9842;SDS011;4960;48.736;9.108;2023-02-15T02:15:17;0.30;;;0.30;;
9842;SDS011;4960;48.736;9.108;2023-02-15T02:17:48;0.40;;;0.40;;
9842;SDS011;4960;48.736;9.108;2023-02-15T02:26:12;0.27;;;0.27;;
9842;SDS011;4960;48.736;9.108;2023-02-15T02:29:03;0.30;;;0.30;;
9842;SDS011;4960;48.736;9.108;2023-02-15T02:34:21;0.20;;;0.20;;
9842;SDS011;4960;48.736;9.108;2023-02-15T02:36:52;0.30;;;0.30;;
9842;SDS011;4960;48.736;9.108;2023-02-15T02:39:22;0.40;;;0.40;;
9842;SDS011;4960;48.736;9.108;2023-02-15T02:41:52;0.40;;;0.40;;
9842;SDS011;4960;48.736;9.108;2023-02-15T02:44:23;0.30;;;0.30;;
9842;SDS011;4960;48.736;9.108;2023-02-15T02:46:52;0.27;;;0.27;;
9842;SDS011;4960;48.736;9.108;2023-02-15T02:49:32;0.30;;;0.30;;
9842;SDS011;4960;48.736;9.108;2023-02-15T02:52:00;0.40;;;0.40;;
9842;SDS011;4960;48.736;9.108;2023-02-15T02:54:27;0.40;;;0.40;;
9842;SDS011;4960;48.736;9.108;2023-02-15T02:56:54;0.30;;;0.30;;
9842;SDS011;4960;48.736;9.108;2023-02-15T02:59:23;0.40;;;0.40;;
9842;SDS011;4960;48.736;9.108;2023-02-15T03:01:54;0.30;;;0.30;;
9842;SDS011;4960;48.736;9.108;2023-02-15T03:04:22;0.30;;;0.30;;
9842;SDS011;4960;48.736;9.108;2023-02-15T03:06:54;0.30;;;0.30;;
9842;SDS011;4960;48.736;9.108;2023-02-15T03:09:23;0.30;;;0.30;;
9842;SDS011;4960;48.736;9.108;2023-02-15T03:11:59;0.33;;;0.33;;
9842;SDS011;4960;48.736;9.108;2023-02-15T03:14:28;0.30;;;0.30;;
9842;SDS011;4960;48.736;9.108;2023-02-15T03:16:55;0.30;;;0.30;;
9842;SDS011;4960;48.736;9.108;2023-02-15T03:19:23;0.40;;;0.40;;
9842;SDS011;4960;48.736;9.108;2023-02-15T03:21:54;0.40;;;0.40;;
9842;SDS011;4960;48.736;9.108;2023-02-15T03:24:29;0.30;;;0.30;;
9842;SDS011;4960;48.736;9.108;2023-02-15T03:26:58;0.30;;;0.30;;
9842;SDS011;4960;48.736;9.108;2023-02-15T03:29:26;0.20;;;0.20;;
9842;SDS011;4960;48.736;9.108;2023-02-15T03:31:55;0.30;;;0.30;;
9842;SDS011;4960;48.736;9.108;2023-02-15T03:34:23;0.20;;;0.20;;
9842;SDS011;4960;48.736;9.108;2023-02-15T03:36:50;0.30;;;0.30;;
9842;SDS011;4960;48.736;9.108;2023-02-15T03:39:22;0.30;;;0.30;;
9842;SDS011;4960;48.736;9.108;2023-02-15T03:41:55;0.30;;;0.30;;
9842;SDS011;4960;48.736;9.108;2023-02-15T03:44:25;0.40;;;0.40;;
9842;SDS011;4960;48.736;9.108;2023-02-15T03:46:55;0.30;;;0.30;;
9842;SDS011;4960;48.736;9.108;2023-02-15T03:49:26;0.30;;;0.30;;
9842;SDS011;4960;48.736;9.108;2023-02-15T03:51:55;0.30;;;0.30;;
9842;SDS011;4960;48.736;9.108;2023-02-15T03:54:25;0.30;;;0.30;;
9842;SDS011;4960;48.736;9.108;2023-02-15T03:57:16;0.30;;;0.30;;
9842;SDS011;4960;48.736;9.108;2023-02-15T04:00:02;0.30;;;0.30;;
9842;SDS011;4960;48.736;9.108;2023-02-15T04:02:59;0.30;;;0.30;;
9842;SDS011;4960;48.736;9.108;2023-02-15T04:05:28;0.20;;;0.20;;
9842;SDS011;4960;48.736;9.108;2023-02-15T04:07:55;0.40;;;0.40;;
9842;SDS011;4960;48.736;9.108;2023-02-15T04:10:24;0.30;;;0.30;;
9842;SDS011;4960;48.736;9.108;2023-02-15T04:13:09;0.30;;;0.30;;
9842;SDS011;4960;48.736;9.108;2023-02-15T04:15:36;0.30;;;0.30;;
9842;SDS011;4960;48.736;9.108;2023-02-15T04:18:20;0.30;;;0.30;;
9842;SDS011;4960;48.736;9.108;2023-02-15T04:21:02;0.40;;;0.40;;
9842;SDS011;4960;48.736;9.108;2023-02-15T04:23:46;0.40;;;0.40;;
9842;SDS011;4960;48.736;9.108;2023-02-15T04:26:32;0.30;;;0.30;;
9842;SDS011;4960;48.736;9.108;2023-02-15T04:29:00;0.40;;;0.40;;
9842;SDS011;4960;48.736;9.108;2023-02-15T04:31:27;0.30;;;0.30;;
9842;SDS011;4960;48.736;9.108;2023-02-15T04:33:54;0.40;;;0.40;;
9842;SDS011;4960;48.736;9.108;2023-02-15T04:36:21;0.30;;;0.30;;
9842;SDS011;4960;48.736;9.108;2023-02-15T04:38:48;0.30;;;0.30;;
9842;SDS011;4960;48.736;9.108;2023-02-15T04:41:15;0.30;;;0.30;;
9842;SDS011;4960;48.736;9.108;2023-02-15T04:43:44;0.40;;;0.40;;
9842;SDS011;4960;48.736;9.108;2023-02-15T04:46:11;0.30;;;0.30;;
9842;SDS011;4960;48.736;9.108;2023-02-15T04:48:38;0.30;;;0.30;;
9842;SDS011;4960;48.736;9.108;2023-02-15T04:51:05;0.30;;;0.30;;
9842;SDS011;4960;48.736;9.108;2023-02-15T04:53:32;0.40;;;0.40;;
9842;SDS011;4960;48.736;9.108;2023-02-15T04:56:00;0.40;;;0.40;;
9842;SDS011;4960;48.736;9.108;2023-02-15T04:58:27;0.40;;;0.40;;
9842;SDS011;4960;48.736;9.108;2023-02-15T05:00:56;0.37;;;0.37;;
9842;SDS011;4960;48.736;9.108;2023-02-15T05:03:23;0.30;;;0.30;;
9842;SDS011;4960;48.736;9.108;2023-02-15T05:05:50;0.40;;;0.40;;
9842;SDS011;4960;48.736;9.108;2023-02-15T05:08:17;0.33;;;0.33;;
9842;SDS011;4960;48.736;9.108;2023-02-15T05:10:44;0.33;;;0.33;;
9842;SDS011;4960;48.736;9.108;2023-02-15T05:13:11;0.30;;;0.30;;
9842;SDS011;4960;48.736;9.108;2023-02-15T05:15:39;0.40;;;0.40;;
9842;SDS011;4960;48.736;9.108;2023-02-15T05:18:07;0.40;;;0.40;;
9842;SDS011;4960;48.736;9.108;2023-02-15T05:20:34;0.30;;;0.30;;
9842;SDS011;4960;48.736;9.108;2023-02-15T05:23:01;0.40;;;0.40;;
9842;SDS011;4960;48.736;9.108;2023-02-15T05:25:29;0.40;;;0.40;;
9842;SDS011;4960;48.736;9.108;2023-02-15T05:28:19;0.30;;;0.30;;
9842;SDS011;4960;48.736;9.108;2023-02-15T05:30:46;0.30;;;0.30;;
9842;SDS011;4960;48.736;9.108;2023-02-15T05:33:15;0.50;;;0.50;;
9842;SDS011;4960;48.736;9.108;2023-02-15T05:35:42;0.40;;;0.40;;
9842;SDS011;4960;48.736;9.108;2023-02-15T05:38:09;0.40;;;0.40;;
9842;SDS011;4960;48.736;9.108;2023-02-15T05:40:36;0.30;;;0.30;;
9842;SDS011;4960;48.736;9.108;2023-02-15T05:43:04;0.40;;;0.40;;
9842;SDS011;4960;48.736;9.108;2023-02-15T05:45:31;0.30;;;0.30;;
9842;SDS011;4960;48.736;9.108;2023-02-15T05:47:58;0.30;;;0.30;;
9842;SDS011;4960;48.736;9.108;2023-02-15T05:50:26;0.37;;;0.37;;
9842;SDS011;4960;48.736;9.108;2023-02-15T05:52:54;0.40;;;0.40;;
9842;SDS011;4960;48.736;9.108;2023-02-15T05:55:21;0.30;;;0.30;;
9842;SDS011;4960;48.736;9.108;2023-02-15T05:57:48;0.40;;;0.40;;
9842;SDS011;4960;48.736;9.108;2023-02-15T06:00:16;0.40;;;0.40;;
9842;SDS011;4960;48.736;9.108;2023-02-15T06:02:43;0.40;;;0.40;;
9842;SDS011;4960;48.736;9.108;2023-02-15T06:05:10;0.30;;;0.30;;
9842;SDS011;4960;48.736;9.108;2023-02-15T06:07:39;0.40;;;0.40;;
9842;SDS011;4960;48.736;9.108;2023-02-15T06:10:06;0.23;;;0.23;;
9842;SDS011;4960;48.736;9.108;2023-02-15T06:12:33;0.33;;;0.33;;
9842;SDS011;4960;48.736;9.108;2023-02-15T06:15:01;0.30;;;0.30;;
9842;SDS011;4960;48.736;9.108;2023-02-15T06:17:28;0.30;;;0.30;;
9842;SDS011;4960;48.736;9.108;2023-02-15T06:19:55;0.30;;;0.30;;
9842;SDS011;4960;48.736;9.108;2023-02-15T06:22:22;0.30;;;0.30;;
9842;SDS011;4960;48.736;9.108;2023-02-15T06:24:51;0.50;;;0.50;;
9842;SDS011;4960;48.736;9.108;2023-02-15T06:27:18;0.33;;;0.33;;
9842;SDS011;4960;48.736;9.108;2023-02-15T06:29:45;0.40;;;0.40;;
9842;SDS011;4960;48.736;9.108;2023-02-15T06:32:12;0.30;;;0.30;;
9842;SDS011;4960;48.736;9.108;2023-02-15T06:34:39;0.40;;;0.40;;
9842;SDS011;4960;48.736;9.108;2023-02-15T06:37:06;0.30;;;0.30;;
9842;SDS011;4960;48.736;9.108;2023-02-15T06:39:34;0.37;;;0.37;;
9842;SDS011;4960;48.736;9.108;2023-02-15T06:42:02;0.30;;;0.30;;
9842;SDS011;4960;48.736;9.108;2023-02-15T06:44:29;0.30;;;0.30;;
9842;SDS011;4960;48.736;9.108;2023-02-15T06:46:57;0.37;;;0.37;;
9842;SDS011;4960;48.736;9.108;2023-02-15T06:49:24;0.30;;;0.30;;
9842;SDS011;4960;48.736;9.108;2023-02-15T06:51:51;0.40;;;0.40;;
9842;SDS011;4960;48.736;9.108;2023-02-15T06:54:18;0.30;;;0.30;;
9842;SDS011;4960;48.736;9.108;2023-02-15T06:56:45;0.40;;;0.40;;
9842;SDS011;4960;48.736;9.108;2023-02-15T06:59:14;0.40;;;0.40;;
9842;SDS011;4960;48.736;9.108;2023-02-15T07:01:41;0.40;;;0.40;;
9842;SDS011;4960;48.736;9.108;2023-02-15T07:04:08;0.40;;;0.40;;
9842;SDS011;4960;48.736;9.108;2023-02-15T07:06:36;0.40;;;0.40;;
9842;SDS011;4960;48.736;9.108;2023-02-15T07:09:03;0.30;;;0.30;;
9842;SDS011;4960;48.736;9.108;2023-02-15T07:11:30;0.30;;;0.30;;
9842;SDS011;4960;48.736;9.108;2023-02-15T07:14:17;0.30;;;0.30;;
9842;SDS011;4960;48.736;9.108;2023-02-15T07:16:44;0.40;;;0.40;;
9842;SDS011;4960;48.736;9.108;2023-02-15T07:19:11;0.30;;;0.30;;
9842;SDS011;4960;48.736;9.108;2023-02-15T07:21:38;0.30;;;0.30;;
9842;SDS011;4960;48.736;9.108;2023-02-15T07:24:06;0.40;;;0.40;;
9842;SDS011;4960;48.736;9.108;2023-02-15T07:26:33;0.30;;;0.30;;
9842;SDS011;4960;48.736;9.108;2023-02-15T07:29:00;0.40;;;0.40;;
9842;SDS011;4960;48.736;9.108;2023-02-15T07:31:29;0.40;;;0.40;;
9842;SDS011;4960;48.736;9.108;2023-02-15T07:33:56;0.40;;;0.40;;
9842;SDS011;4960;48.736;9.108;2023-02-15T07:36:23;0.30;;;0.30;;
9842;SDS011;4960;48.736;9.108;2023-02-15T07:38:50;0.30;;;0.30;;
9842;SDS011;4960;48.736;9.108;2023-02-15T07:41:18;0.30;;;0.30;;
9842;SDS011;4960;48.736;9.108;2023-02-15T07:43:45;0.40;;;0.40;;
9842;SDS011;4960;48.736;9.108;2023-02-15T07:46:12;0.30;;;0.30;;
9842;SDS011;4960;48.736;9.108;2023-02-15T07:48:41;0.30;;;0.30;;
9842;SDS011;4960;48.736;9.108;2023-02-15T07:51:09;0.37;;;0.37;;
9842;SDS011;4960;48.736;9.108;2023-02-15T07:53:37;0.30;;;0.30;;
9842;SDS011;4960;48.736;9.108;2023-02-15T07:56:05;0.30;;;0.30;;
9842;SDS011;4960;48.736;9.108;2023-02-15T07:58:32;0.40;;;0.40;;
9842;SDS011;4960;48.736;9.108;2023-02-15T08:01:19;0.30;;;0.30;;
9842;SDS011;4960;48.736;9.108;2023-02-15T08:03:48;0.30;;;0.30;;
9842;SDS011;4960;48.736;9.108;2023-02-15T08:06:15;0.40;;;0.40;;
9842;SDS011;4960;48.736;9.108;2023-02-15T08:08:42;0.30;;;0.30;;
9842;SDS011;4960;48.736;9.108;2023-02-15T08:11:14;0.30;;;0.30;;
9842;SDS011;4960;48.736;9.108;2023-02-15T08:13:52;0.20;;;0.20;;
9842;SDS011;4960;48.736;9.108;2023-02-15T08:16:24;0.30;;;0.30;;
9842;SDS011;4960;48.736;9.108;2023-02-15T08:18:53;0.20;;;0.20;;
9842;SDS011;4960;48.736;9.108;2023-02-15T08:21:21;0.20;;;0.20;;
9842;SDS011;4960;48.736;9.108;2023-02-15T08:23:48;0.10;;;0.10;;
9842;SDS011;4960;48.736;9.108;2023-02-15T08:26:15;0.10;;;0.10;;
9842;SDS011;4960;48.736;9.108;2023-02-15T08:28:43;0.10;;;0.10;;
9842;SDS011;4960;48.736;9.108;2023-02-15T08:31:12;0.20;;;0.20;;
9842;SDS011;4960;48.736;9.108;2023-02-15T08:33:40;0.10;;;0.10;;
9842;SDS011;4960;48.736;9.108;2023-02-15T08:36:10;0.20;;;0.20;;
9842;SDS011;4960;48.736;9.108;2023-02-15T08:38:37;0.20;;;0.20;;
9842;SDS011;4960;48.736;9.108;2023-02-15T08:41:08;0.10;;;0.10;;
9842;SDS011;4960;48.736;9.108;2023-02-15T08:43:36;0.10;;;0.10;;
9842;SDS011;4960;48.736;9.108;2023-02-15T08:46:03;0.10;;;0.10;;
9842;SDS011;4960;48.736;9.108;2023-02-15T08:48:31;0.10;;;0.10;;
9842;SDS011;4960;48.736;9.108;2023-02-15T08:50:58;0.10;;;0.10;;
9842;SDS011;4960;48.736;9.108;2023-02-15T08:53:27;0.17;;;0.17;;
9842;SDS011;4960;48.736;9.108;2023-02-15T08:55:57;0.10;;;0.10;;
9842;SDS011;4960;48.736;9.108;2023-02-15T08:58:24;0.10;;;0.10;;
9842;SDS011;4960;48.736;9.108;2023-02-15T09:00:52;0.10;;;0.10;;
9842;SDS011;4960;48.736;9.108;2023-02-15T09:03:19;0.10;;;0.10;;
9842;SDS011;4960;48.736;9.108;2023-02-15T09:05:46;0.10;;;0.10;;
9842;SDS011;4960;48.736;9.108;2023-02-15T09:08:13;0.10;;;0.10;;
9842;SDS011;4960;48.736;9.108;2023-02-15T09:10:42;0.10;;;0.10;;
9842;SDS011;4960;48.736;9.108;2023-02-15T09:13:09;0.10;;;0.10;;
9842;SDS011;4960;48.736;9.108;2023-02-15T09:15:36;0.10;;;0.10;;
9842;SDS011;4960;48.736;9.108;2023-02-15T09:18:03;0.10;;;0.10;;
9842;SDS011;4960;48.736;9.108;2023-02-15T09:20:31;0.10;;;0.10;;
9842;SDS011;4960;48.736;9.108;2023-02-15T09:22:58;0.10;;;0.10;;
9842;SDS011;4960;48.736;9.108;2023-02-15T09:25:26;0.20;;;0.20;;
9842;SDS011;4960;48.736;9.108;2023-02-15T09:27:54;0.10;;;0.10;;
9842;SDS011;4960;48.736;9.108;2023-02-15T09:30:22;0.10;;;0.10;;
9842;SDS011;4960;48.736;9.108;2023-02-15T09:32:49;0.10;;;0.10;;
9842;SDS011;4960;48.736;9.108;2023-02-15T09:35:16;0.10;;;0.10;;
9842;SDS011;4960;48.736;9.108;2023-02-15T09:37:43;0.20;;;0.20;;
9842;SDS011;4960;48.736;9.108;2023-02-15T09:40:11;0.10;;;0.10;;
9842;SDS011;4960;48.736;9.108;2023-02-15T09:42:56;0.10;;;0.10;;
9842;SDS011;4960;48.736;9.108;2023-02-15T09:48:29;0.10;;;0.10;;
9842;SDS011;4960;48.736;9.108;2023-02-15T09:51:03;0.10;;;0.10;;
9842;SDS011;4960;48.736;9.108;2023-02-15T09:53:36;0.10;;;0.10;;
9842;SDS011;4960;48.736;9.108;2023-02-15T09:56:06;0.10;;;0.10;;
9842;SDS011;4960;48.736;9.108;2023-02-15T09:58:40;0.13;;;0.13;;
9842;SDS011;4960;48.736;9.108;2023-02-15T10:01:10;0.10;;;0.10;;
9842;SDS011;4960;48.736;9.108;2023-02-15T10:03:47;0.10;;;0.10;;
9842;SDS011;4960;48.736;9.108;2023-02-15T10:09:08;0.20;;;0.20;;
9842;SDS011;4960;48.736;9.108;2023-02-15T10:11:41;0.10;;;0.10;;
9842;SDS011;4960;48.736;9.108;2023-02-15T10:14:18;0.10;;;0.10;;
9842;SDS011;4960;48.736;9.108;2023-02-15T10:16:49;0.10;;;0.10;;
9842;SDS011;4960;48.736;9.108;2023-02-15T10:19:23;0.10;;;0.10;;
9842;SDS011;4960;48.736;9.108;2023-02-15T10:21:55;0.10;;;0.10;;
9842;SDS011;4960;48.736;9.108;2023-02-15T10:27:18;0.10;;;0.10;;
9842;SDS011;4960;48.736;9.108;2023-02-15T10:29:48;0.10;;;0.10;;
9842;SDS011;4960;48.736;9.108;2023-02-15T10:32:20;0.10;;;0.10;;
9842;SDS011;4960;48.736;9.108;2023-02-15T10:34:50;0.00;;;0.00;;
9842;SDS011;4960;48.736;9.108;2023-02-15T10:40:01;0.20;;;0.20;;
9842;SDS011;4960;48.736;9.108;2023-02-15T10:42:34;0.10;;;0.10;;
9842;SDS011;4960;48.736;9.108;2023-02-15T10:45:10;0.20;;;0.20;;
9842;SDS011;4960;48.736;9.108;2023-02-15T10:47:46;0.20;;;0.20;;
9842;SDS011;4960;48.736;9.108;2023-02-15T10:50:21;0.10;;;0.10;;
9842;SDS011;4960;48.736;9.108;2023-02-15T10:52:54;0.10;;;0.10;;
9842;SDS011;4960;48.736;9.108;2023-02-15T10:55:29;0.10;;;0.10;;
9842;SDS011;4960;48.736;9.108;2023-02-15T10:58:03;0.10;;;0.10;;
9842;SDS011;4960;48.736;9.108;2023-02-15T11:00:35;0.20;;;0.20;;
9842;SDS011;4960;48.736;9.108;2023-02-15T11:03:20;0.10;;;0.10;;
9842;SDS011;4960;48.736;9.108;2023-02-15T11:05:52;0.10;;;0.10;;
9842;SDS011;4960;48.736;9.108;2023-02-15T11:08:21;0.10;;;0.10;;
9842;SDS011;4960;48.736;9.108;2023-02-15T11:10:51;0.10;;;0.10;;
9842;SDS011;4960;48.736;9.108;2023-02-15T11:13:20;0.10;;;0.10;;
9842;SDS011;4960;48.736;9.108;2023-02-15T11:15:51;0.10;;;0.10;;
9842;SDS011;4960;48.736;9.108;2023-02-15T11:18:21;0.10;;;0.10;;
9842;SDS011;4960;48.736;9.108;2023-02-15T11:20:52;0.10;;;0.10;;
9842;SDS011;4960;48.736;9.108;2023-02-15T11:23:21;0.10;;;0.10;;
9842;SDS011;4960;48.736;9.108;2023-02-15T11:25:52;0.00;;;0.00;;
9842;SDS011;4960;48.736;9.108;2023-02-15T11:28:22;0.10;;;0.10;;
9842;SDS011;4960;48.736;9.108;2023-02-15T11:30:53;0.00;;;0.00;;
9842;SDS011;4960;48.736;9.108;2023-02-15T11:33:22;0.00;;;0.00;;
9842;SDS011;4960;48.736;9.108;2023-02-15T11:35:51;0.00;;;0.00;;
9842;SDS011;4960;48.736;9.108;2023-02-15T11:38:21;0.10;;;0.10;;
9842;SDS011;4960;48.736;9.108;2023-02-15T11:40:49;0.00;;;0.00;;
9842;SDS011;4960;48.736;9.108;2023-02-15T11:43:16;0.00;;;0.00;;
9842;SDS011;4960;48.736;9.108;2023-02-15T11:45:47;0.00;;;0.00;;
9842;SDS011;4960;48.736;9.108;2023-02-15T11:48:15;0.07;;;0.07;;
9842;SDS011;4960;48.736;9.108;2023-02-15T11:50:43;0.07;;;0.07;;
9842;SDS011;4960;48.736;9.108;2023-02-15T11:53:11;0.07;;;0.07;;
9842;SDS011;4960;48.736;9.108;2023-02-15T11:55:39;0.00;;;0.00;;
9842;SDS011;4960;48.736;9.108;2023-02-15T11:58:08;0.00;;;0.00;;
9842;SDS011;4960;48.736;9.108;2023-02-15T12:00:36;0.10;;;0.10;;
9842;SDS011;4960;48.736;9.108;2023-02-15T12:03:11;0.00;;;0.00;;
9842;SDS011;4960;48.736;9.108;2023-02-15T12:05:42;0.00;;;0.00;;
9842;SDS011;4960;48.736;9.108;2023-02-15T12:08:15;0.00;;;0.00;;
9842;SDS011;4960;48.736;9.108;2023-02-15T12:10:45;0.10;;;0.10;;
9842;SDS011;4960;48.736;9.108;2023-02-15T12:13:16;0.03;;;0.03;;
9842;SDS011;4960;48.736;9.108;2023-02-15T12:15:44;0.00;;;0.00;;
9842;SDS011;4960;48.736;9.108;2023-02-15T12:18:17;0.00;;;0.00;;
9842;SDS011;4960;48.736;9.108;2023-02-15T12:20:47;0.00;;;0.00;;
9842;SDS011;4960;48.736;9.108;2023-02-15T12:23:16;0.00;;;0.00;;
9842;SDS011;4960;48.736;9.108;2023-02-15T12:25:48;0.00;;;0.00;;
9842;SDS011;4960;48.736;9.108;2023-02-15T12:28:22;0.00;;;0.00;;
9842;SDS011;4960;48.736;9.108;2023-02-15T12:30:50;0.00;;;0.00;;
9842;SDS011;4960;48.736;9.108;2023-02-15T12:33:21;0.00;;;0.00;;
9842;SDS011;4960;48.736;9.108;2023-02-15T12:35:55;0.10;;;0.10;;
9842;SDS011;4960;48.736;9.108;2023-02-15T12:38:24;0.10;;;0.10;;
9842;SDS011;4960;48.736;9.108;2023-02-15T12:40:56;0.10;;;0.10;;
9842;SDS011;4960;48.736;9.108;2023-02-15T12:43:24;0.10;;;0.10;;
9842;SDS011;4960;48.736;9.108;2023-02-15T12:45:52;0.13;;;0.13;;
9842;SDS011;4960;48.736;9.108;2023-02-15T12:48:19;0.10;;;0.10;;
9842;SDS011;4960;48.736;9.108;2023-02-15T12:50:47;0.10;;;0.10;;
9842;SDS011;4960;48.736;9.108;2023-02-15T12:53:16;0.20;;;0.20;;
9842;SDS011;4960;48.736;9.108;2023-02-15T12:55:49;0.20;;;0.20;;
9842;SDS011;4960;48.736;9.108;2023-02-15T12:58:17;0.10;;;0.10;;
9842;SDS011;4960;48.736;9.108;2023-02-15T13:00:45;0.20;;;0.20;;
9842;SDS011;4960;48.736;9.108;2023-02-15T13:03:16;0.10;;;0.10;;
9842;SDS011;4960;48.736;9.108;2023-02-15T13:05:44;0.10;;;0.10;;
9842;SDS011;4960;48.736;9.108;2023-02-15T13:08:14;0.10;;;0.10;;
9842;SDS011;4960;48.736;9.108;2023-02-15T13:10:53;0.10;;;0.10;;
9842;SDS011;4960;48.736;9.108;2023-02-15T13:13:22;0.00;;;0.00;;
9842;SDS011;4960;48.736;9.108;2023-02-15T13:15:52;0.10;;;0.10;;
9842;SDS011;4960;48.736;9.108;2023-02-15T13:18:30;0.10;;;0.10;;
9842;SDS011;4960;48.736;9.108;2023-02-15T13:20:59;0.10;;;0.10;;
9842;SDS011;4960;48.736;9.108;2023-02-15T13:23:28;0.10;;;0.10;;
9842;SDS011;4960;48.736;9.108;2023-02-15T13:25:58;0.13;;;0.13;;
9842;SDS011;4960;48.736;9.108;2023-02-15T13:28:27;0.10;;;0.10;;
9842;SDS011;4960;48.736;9.108;2023-02-15T13:30:58;0.20;;;0.20;;
9842;SDS011;4960;48.736;9.108;2023-02-15T13:33:26;0.10;;;0.10;;
9842;SDS011;4960;48.736;9.108;2023-02-15T13:36:00;0.10;;;0.10;;
9842;SDS011;4960;48.736;9.108;2023-02-15T13:41:13;0.00;;;0.00;;
9842;SDS011;4960;48.736;9.108;2023-02-15T13:43:44;0.10;;;0.10;;
9842;SDS011;4960;48.736;9.108;2023-02-15T13:46:21;0.10;;;0.10;;
9842;SDS011;4960;48.736;9.108;2023-02-15T13:48:54;0.10;;;0.10;;
9842;SDS011;4960;48.736;9.108;2023-02-15T13:51:25;0.00;;;0.00;;
9842;SDS011;4960;48.736;9.108;2023-02-15T13:54:01;0.00;;;0.00;;
9842;SDS011;4960;48.736;9.108;2023-02-15T13:56:34;0.00;;;0.00;;
9842;SDS011;4960;48.736;9.108;2023-02-15T13:59:17;0.00;;;0.00;;
9842;SDS011;4960;48.736;9.108;2023-02-15T14:01:45;0.00;;;0.00;;
9842;SDS011;4960;48.736;9.108;2023-02-15T14:04:23;0.00;;;0.00;;
9842;SDS011;4960;48.736;9.108;2023-02-15T14:09:40;0.00;;;0.00;;
9842;SDS011;4960;48.736;9.108;2023-02-15T14:12:15;0.00;;;0.00;;
9842;SDS011;4960;48.736;9.108;2023-02-15T14:14:52;0.00;;;0.00;;
9842;SDS011;4960;48.736;9.108;2023-02-15T14:17:24;0.00;;;0.00;;
9842;SDS011;4960;48.736;9.108;2023-02-15T14:19:54;0.00;;;0.00;;
9842;SDS011;4960;48.736;9.108;2023-02-15T14:22:25;0.00;;;0.00;;
9842;SDS011;4960;48.736;9.108;2023-02-15T14:24:59;0.00;;;0.00;;
9842;SDS011;4960;48.736;9.108;2023-02-15T14:27:38;0.00;;;0.00;;
9842;SDS011;4960;48.736;9.108;2023-02-15T14:30:12;0.00;;;0.00;;
9842;SDS011;4960;48.736;9.108;2023-02-15T14:32:42;0.00;;;0.00;;
9842;SDS011;4960;48.736;9.108;2023-02-15T14:35:12;0.00;;;0.00;;
9842;SDS011;4960;48.736;9.108;2023-02-15T14:37:41;0.00;;;0.00;;
9842;SDS011;4960;48.736;9.108;2023-02-15T14:40:12;0.00;;;0.00;;
9842;SDS011;4960;48.736;9.108;2023-02-15T14:43:04;0.00;;;0.00;;
9842;SDS011;4960;48.736;9.108;2023-02-15T14:45:34;0.00;;;0.00;;
9842;SDS011;4960;48.736;9.108;2023-02-15T14:48:09;0.00;;;0.00;;
9842;SDS011;4960;48.736;9.108;2023-02-15T14:50:39;0.00;;;0.00;;
9842;SDS011;4960;48.736;9.108;2023-02-15T14:53:17;0.10;;;0.10;;
9842;SDS011;4960;48.736;9.108;2023-02-15T14:55:44;0.00;;;0.00;;
9842;SDS011;4960;48.736;9.108;2023-02-15T14:58:12;0.10;;;0.10;;
9842;SDS011;4960;48.736;9.108;2023-02-15T15:00:40;0.10;;;0.10;;
9842;SDS011;4960;48.736;9.108;2023-02-15T15:03:12;0.10;;;0.10;;
9842;SDS011;4960;48.736;9.108;2023-02-15T15:05:48;0.10;;;0.10;;
9842;SDS011;4960;48.736;9.108;2023-02-15T15:08:21;0.10;;;0.10;;
9842;SDS011;4960;48.736;9.108;2023-02-15T15:10:49;0.10;;;0.10;;
9842;SDS011;4960;48.736;9.108;2023-02-15T15:18:46;0.13;;;0.13;;
9842;SDS011;4960;48.736;9.108;2023-02-15T15:23:56;0.10;;;0.10;;
9842;SDS011;4960;48.736;9.108;2023-02-15T15:26:24;0.20;;;0.20;;
9842;SDS011;4960;48.736;9.108;2023-02-15T15:28:53;0.10;;;0.10;;
9842;SDS011;4960;48.736;9.108;2023-02-15T15:31:22;0.10;;;0.10;;
9842;SDS011;4960;48.736;9.108;2023-02-15T15:34:10;0.20;;;0.20;;
9842;SDS011;4960;48.736;9.108;2023-02-15T15:39:37;0.10;;;0.10;;
9842;SDS011;4960;48.736;9.108;2023-02-15T15:42:09;0.10;;;0.10;;
9842;SDS011;4960;48.736;9.108;2023-02-15T15:47:26;0.10;;;0.10;;
9842;SDS011;4960;48.736;9.108;2023-02-15T15:49:57;0.20;;;0.20;;
9842;SDS011;4960;48.736;9.108;2023-02-15T15:52:26;0.10;;;0.10;;
9842;SDS011;4960;48.736;9.108;2023-02-15T15:54:54;0.10;;;0.10;;
9842;SDS011;4960;48.736;9.108;2023-02-15T15:57:25;0.10;;;0.10;;
9842;SDS011;4960;48.736;9.108;2023-02-15T15:59:54;0.10;;;0.10;;
9842;SDS011;4960;48.736;9.108;2023-02-15T16:02:23;0.10;;;0.10;;
9842;SDS011;4960;48.736;9.108;2023-02-15T16:04:50;0.10;;;0.10;;
9842;SDS011;4960;48.736;9.108;2023-02-15T16:07:25;0.10;;;0.10;;
9842;SDS011;4960;48.736;9.108;2023-02-15T16:09:53;0.10;;;0.10;;
9842;SDS011;4960;48.736;9.108;2023-02-15T16:12:20;0.10;;;0.10;;